sensor_id;sensor_type;location;lat;lon;timestamp;P1;durP1;ratioP1;P2;durP2;ratioP2
78674;SDS011;67990;59.826;30.108;2023-04-24T00:03:13;12.87;;;1.60;;
78674;SDS011;67990;59.826;30.108;2023-04-24T00:05:59;8.10;;;1.80;;
78674;SDS011;67990;59.826;30.108;2023-04-24T00:08:45;5.68;;;1.48;;
78674;SDS011;67990;59.826;30.108;2023-04-24T00:11:30;4.82;;;1.40;;
78674;SDS011;67990;59.826;30.108;2023-04-24T00:13:58;5.93;;;1.40;;
78674;SDS011;67990;59.826;30.108;2023-04-24T00:19:11;5.30;;;1.23;;
78674;SDS011;67990;59.826;30.108;2023-04-24T00:21:38;6.18;;;1.20;;
78674;SDS011;67990;59.826;30.108;2023-04-24T00:26:52;5.50;;;1.30;;
78674;SDS011;67990;59.826;30.108;2023-04-24T00:29:19;11.90;;;1.80;;
78674;SDS011;67990;59.826;30.108;2023-04-24T00:32:04;8.97;;;1.47;;
78674;SDS011;67990;59.826;30.108;2023-04-24T00:34:33;9.23;;;1.42;;
78674;SDS011;67990;59.826;30.108;2023-04-24T00:37:00;7.88;;;1.45;;
78674;SDS011;67990;59.826;30.108;2023-04-24T00:39:27;6.18;;;1.45;;
78674;SDS011;67990;59.826;30.108;2023-04-24T00:45:16;4.40;;;1.20;;
78674;SDS011;67990;59.826;30.108;2023-04-24T00:47:43;7.15;;;1.27;;
78674;SDS011;67990;59.826;30.108;2023-04-24T00:50:14;6.78;;;1.60;;
78674;SDS011;67990;59.826;30.108;2023-04-24T00:55:28;6.20;;;1.30;;
78674;SDS011;67990;59.826;30.108;2023-04-24T00:57:55;6.07;;;1.53;;
78674;SDS011;67990;59.826;30.108;2023-04-24T01:00:23;4.72;;;1.30;;
78674;SDS011;67990;59.826;30.108;2023-04-24T01:02:51;9.52;;;1.60;;
78674;SDS011;67990;59.826;30.108;2023-04-24T01:08:06;4.88;;;1.55;;
78674;SDS011;67990;59.826;30.108;2023-04-24T01:10:35;6.33;;;1.33;;
78674;SDS011;67990;59.826;30.108;2023-04-24T01:13:05;4.93;;;1.23;;
78674;SDS011;67990;59.826;30.108;2023-04-24T01:15:50;8.10;;;1.48;;
78674;SDS011;67990;59.826;30.108;2023-04-24T01:18:17;6.30;;;1.60;;
78674;SDS011;67990;59.826;30.108;2023-04-24T01:23:51;5.07;;;1.70;;
78674;SDS011;67990;59.826;30.108;2023-04-24T01:26:54;3.60;;;1.10;;
78674;SDS011;67990;59.826;30.108;2023-04-24T01:29:22;6.45;;;1.50;;
78674;SDS011;67990;59.826;30.108;2023-04-24T01:31:49;6.28;;;1.35;;
78674;SDS011;67990;59.826;30.108;2023-04-24T01:34:35;7.78;;;1.83;;
78674;SDS011;67990;59.826;30.108;2023-04-24T01:37:03;6.47;;;1.60;;
78674;SDS011;67990;59.826;30.108;2023-04-24T01:39:32;5.10;;;1.60;;
78674;SDS011;67990;59.826;30.108;2023-04-24T01:42:00;5.70;;;1.70;;
78674;SDS011;67990;59.826;30.108;2023-04-24T01:44:27;5.05;;;1.75;;
78674;SDS011;67990;59.826;30.108;2023-04-24T01:46:55;5.70;;;1.70;;
78674;SDS011;67990;59.826;30.108;2023-04-24T01:49:40;5.07;;;1.70;;
78674;SDS011;67990;59.826;30.108;2023-04-24T01:52:08;6.63;;;1.97;;
78674;SDS011;67990;59.826;30.108;2023-04-24T01:54:36;4.85;;;1.85;;
78674;SDS011;67990;59.826;30.108;2023-04-24T01:57:03;6.60;;;2.30;;
78674;SDS011;67990;59.826;30.108;2023-04-24T01:59:31;4.90;;;1.80;;
78674;SDS011;67990;59.826;30.108;2023-04-24T02:01:59;5.20;;;1.60;;
78674;SDS011;67990;59.826;30.108;2023-04-24T02:04:27;9.97;;;2.00;;
78674;SDS011;67990;59.826;30.108;2023-04-24T02:06:53;6.00;;;1.67;;
78674;SDS011;67990;59.826;30.108;2023-04-24T02:09:21;10.77;;;2.20;;
78674;SDS011;67990;59.826;30.108;2023-04-24T02:11:50;7.32;;;1.67;;
78674;SDS011;67990;59.826;30.108;2023-04-24T02:14:18;5.40;;;1.55;;
78674;SDS011;67990;59.826;30.108;2023-04-24T02:19:49;6.95;;;2.00;;
78674;SDS011;67990;59.826;30.108;2023-04-24T02:22:34;6.53;;;2.30;;
78674;SDS011;67990;59.826;30.108;2023-04-24T02:25:20;7.10;;;1.88;;
78674;SDS011;67990;59.826;30.108;2023-04-24T02:27:49;6.90;;;2.35;;
78674;SDS011;67990;59.826;30.108;2023-04-24T02:30:16;6.67;;;2.10;;
78674;SDS011;67990;59.826;30.108;2023-04-24T02:32:44;8.65;;;2.20;;
78674;SDS011;67990;59.826;30.108;2023-04-24T02:35:11;8.10;;;1.90;;
78674;SDS011;67990;59.826;30.108;2023-04-24T02:37:57;7.03;;;2.00;;
78674;SDS011;67990;59.826;30.108;2023-04-24T02:43:12;4.40;;;1.67;;
78674;SDS011;67990;59.826;30.108;2023-04-24T02:45:57;8.90;;;2.00;;
78674;SDS011;67990;59.826;30.108;2023-04-24T02:48:24;5.40;;;2.00;;
78674;SDS011;67990;59.826;30.108;2023-04-24T02:50:51;4.97;;;2.10;;
78674;SDS011;67990;59.826;30.108;2023-04-24T02:53:19;4.38;;;2.15;;
78674;SDS011;67990;59.826;30.108;2023-04-24T02:55:46;7.57;;;2.13;;
78674;SDS011;67990;59.826;30.108;2023-04-24T02:58:32;5.55;;;2.00;;
78674;SDS011;67990;59.826;30.108;2023-04-24T03:01:00;6.38;;;2.00;;
78674;SDS011;67990;59.826;30.108;2023-04-24T03:03:27;5.50;;;2.00;;
78674;SDS011;67990;59.826;30.108;2023-04-24T03:05:55;6.32;;;2.00;;
78674;SDS011;67990;59.826;30.108;2023-04-24T03:08:22;6.90;;;2.03;;
78674;SDS011;67990;59.826;30.108;2023-04-24T03:11:08;7.72;;;2.10;;
78674;SDS011;67990;59.826;30.108;2023-04-24T03:13:54;7.07;;;2.22;;
78674;SDS011;67990;59.826;30.108;2023-04-24T03:16:57;5.40;;;2.08;;
78674;SDS011;67990;59.826;30.108;2023-04-24T03:19:43;6.15;;;2.30;;
78674;SDS011;67990;59.826;30.108;2023-04-24T03:22:12;6.60;;;2.53;;
78674;SDS011;67990;59.826;30.108;2023-04-24T03:24:58;8.23;;;2.95;;
78674;SDS011;67990;59.826;30.108;2023-04-24T03:27:25;10.30;;;3.63;;
78674;SDS011;67990;59.826;30.108;2023-04-24T03:30:31;9.55;;;2.65;;
78674;SDS011;67990;59.826;30.108;2023-04-24T03:33:00;6.80;;;2.50;;
78674;SDS011;67990;59.826;30.108;2023-04-24T03:38:40;8.82;;;2.40;;
78674;SDS011;67990;59.826;30.108;2023-04-24T03:41:26;7.38;;;2.42;;
78674;SDS011;67990;59.826;30.108;2023-04-24T03:44:05;8.27;;;2.15;;
78674;SDS011;67990;59.826;30.108;2023-04-24T03:49:39;11.47;;;2.40;;
78674;SDS011;67990;59.826;30.108;2023-04-24T03:54:53;7.57;;;3.05;;
78674;SDS011;67990;59.826;30.108;2023-04-24T03:57:21;7.20;;;2.60;;
78674;SDS011;67990;59.826;30.108;2023-04-24T04:00:09;6.22;;;2.80;;
78674;SDS011;67990;59.826;30.108;2023-04-24T04:02:40;6.65;;;2.78;;
78674;SDS011;67990;59.826;30.108;2023-04-24T04:05:10;6.13;;;2.73;;
78674;SDS011;67990;59.826;30.108;2023-04-24T04:10:23;9.15;;;3.28;;
78674;SDS011;67990;59.826;30.108;2023-04-24T04:12:50;7.45;;;3.47;;
78674;SDS011;67990;59.826;30.108;2023-04-24T04:18:03;8.65;;;3.65;;
78674;SDS011;67990;59.826;30.108;2023-04-24T04:20:50;6.90;;;3.00;;
78674;SDS011;67990;59.826;30.108;2023-04-24T04:23:17;9.73;;;2.80;;
78674;SDS011;67990;59.826;30.108;2023-04-24T04:26:03;8.55;;;3.15;;
78674;SDS011;67990;59.826;30.108;2023-04-24T04:28:49;7.38;;;2.90;;
78674;SDS011;67990;59.826;30.108;2023-04-24T04:31:40;10.75;;;3.00;;
78674;SDS011;67990;59.826;30.108;2023-04-24T04:34:10;8.63;;;3.58;;
78674;SDS011;67990;59.826;30.108;2023-04-24T04:39:48;11.07;;;3.77;;
78674;SDS011;67990;59.826;30.108;2023-04-24T04:42:19;10.63;;;3.65;;
78674;SDS011;67990;59.826;30.108;2023-04-24T04:45:05;11.77;;;4.05;;
78674;SDS011;67990;59.826;30.108;2023-04-24T04:47:45;6.95;;;3.78;;
78674;SDS011;67990;59.826;30.108;2023-04-24T04:50:13;8.88;;;4.30;;
78674;SDS011;67990;59.826;30.108;2023-04-24T04:53:06;8.63;;;4.50;;
78674;SDS011;67990;59.826;30.108;2023-04-24T04:55:36;6.83;;;4.13;;
78674;SDS011;67990;59.826;30.108;2023-04-24T04:58:08;8.43;;;4.57;;
78674;SDS011;67990;59.826;30.108;2023-04-24T05:00:36;9.77;;;4.55;;
78674;SDS011;67990;59.826;30.108;2023-04-24T05:03:30;10.35;;;4.13;;
78674;SDS011;67990;59.826;30.108;2023-04-24T05:08:55;12.85;;;4.93;;
78674;SDS011;67990;59.826;30.108;2023-04-24T05:11:33;10.43;;;4.80;;
78674;SDS011;67990;59.826;30.108;2023-04-24T05:14:17;10.95;;;4.78;;
78674;SDS011;67990;59.826;30.108;2023-04-24T05:19:32;8.45;;;4.50;;
78674;SDS011;67990;59.826;30.108;2023-04-24T05:22:16;8.98;;;5.18;;
78674;SDS011;67990;59.826;30.108;2023-04-24T05:24:51;7.40;;;4.30;;
78674;SDS011;67990;59.826;30.108;2023-04-24T05:27:33;7.07;;;5.17;;
78674;SDS011;67990;59.826;30.108;2023-04-24T05:30:05;11.35;;;5.07;;
78674;SDS011;67990;59.826;30.108;2023-04-24T05:32:33;10.80;;;5.30;;
78674;SDS011;67990;59.826;30.108;2023-04-24T05:35:18;11.20;;;5.43;;
78674;SDS011;67990;59.826;30.108;2023-04-24T05:37:46;17.17;;;5.82;;
78674;SDS011;67990;59.826;30.108;2023-04-24T05:40:15;8.90;;;5.60;;
78674;SDS011;67990;59.826;30.108;2023-04-24T05:42:42;10.13;;;5.50;;
78674;SDS011;67990;59.826;30.108;2023-04-24T05:45:09;14.70;;;6.57;;
78674;SDS011;67990;59.826;30.108;2023-04-24T05:47:41;9.55;;;5.60;;
78674;SDS011;67990;59.826;30.108;2023-04-24T05:50:27;12.55;;;5.93;;
78674;SDS011;67990;59.826;30.108;2023-04-24T05:53:31;11.25;;;5.57;;
78674;SDS011;67990;59.826;30.108;2023-04-24T05:56:00;13.47;;;6.03;;
78674;SDS011;67990;59.826;30.108;2023-04-24T05:58:27;11.20;;;6.53;;
78674;SDS011;67990;59.826;30.108;2023-04-24T06:00:55;10.52;;;6.00;;
78674;SDS011;67990;59.826;30.108;2023-04-24T06:06:09;7.75;;;5.18;;
78674;SDS011;67990;59.826;30.108;2023-04-24T06:11:26;13.33;;;5.87;;
78674;SDS011;67990;59.826;30.108;2023-04-24T06:14:12;13.00;;;6.07;;
78674;SDS011;67990;59.826;30.108;2023-04-24T06:17:15;11.23;;;5.75;;
78674;SDS011;67990;59.826;30.108;2023-04-24T06:19:42;12.55;;;6.50;;
78674;SDS011;67990;59.826;30.108;2023-04-24T06:22:10;12.02;;;5.88;;
78674;SDS011;67990;59.826;30.108;2023-04-24T06:24:37;14.80;;;5.38;;
78674;SDS011;67990;59.826;30.108;2023-04-24T06:27:05;7.93;;;6.03;;
78674;SDS011;67990;59.826;30.108;2023-04-24T06:29:51;11.63;;;5.37;;
78674;SDS011;67990;59.826;30.108;2023-04-24T06:32:20;25.13;;;6.30;;
78674;SDS011;67990;59.826;30.108;2023-04-24T06:37:53;10.63;;;5.40;;
78674;SDS011;67990;59.826;30.108;2023-04-24T06:40:21;8.73;;;6.50;;
78674;SDS011;67990;59.826;30.108;2023-04-24T06:42:50;12.20;;;5.53;;
78674;SDS011;67990;59.826;30.108;2023-04-24T06:45:17;9.47;;;6.13;;
78674;SDS011;67990;59.826;30.108;2023-04-24T06:47:44;12.18;;;5.38;;
78674;SDS011;67990;59.826;30.108;2023-04-24T06:50:28;15.15;;;6.03;;
78674;SDS011;67990;59.826;30.108;2023-04-24T06:52:56;12.15;;;5.95;;
78674;SDS011;67990;59.826;30.108;2023-04-24T06:55:41;10.75;;;5.70;;
78674;SDS011;67990;59.826;30.108;2023-04-24T06:58:10;13.20;;;5.43;;
78674;SDS011;67990;59.826;30.108;2023-04-24T07:00:37;13.70;;;5.70;;
78674;SDS011;67990;59.826;30.108;2023-04-24T07:03:22;17.77;;;5.65;;
78674;SDS011;67990;59.826;30.108;2023-04-24T07:05:49;10.60;;;5.15;;
78674;SDS011;67990;59.826;30.108;2023-04-24T07:08:16;10.32;;;5.28;;
78674;SDS011;67990;59.826;30.108;2023-04-24T07:11:02;18.13;;;5.78;;
78674;SDS011;67990;59.826;30.108;2023-04-24T07:13:31;15.97;;;5.40;;
78674;SDS011;67990;59.826;30.108;2023-04-24T07:16:15;14.47;;;5.07;;
78674;SDS011;67990;59.826;30.108;2023-04-24T07:18:43;24.48;;;5.82;;
78674;SDS011;67990;59.826;30.108;2023-04-24T07:21:28;13.32;;;5.93;;
78674;SDS011;67990;59.826;30.108;2023-04-24T07:24:14;11.93;;;5.03;;
78674;SDS011;67990;59.826;30.108;2023-04-24T07:26:59;20.25;;;6.25;;
78674;SDS011;67990;59.826;30.108;2023-04-24T07:29:28;19.90;;;6.20;;
78674;SDS011;67990;59.826;30.108;2023-04-24T07:32:13;18.45;;;4.82;;
78674;SDS011;67990;59.826;30.108;2023-04-24T07:34:59;16.45;;;6.10;;
78674;SDS011;67990;59.826;30.108;2023-04-24T07:37:27;15.07;;;4.93;;
78674;SDS011;67990;59.826;30.108;2023-04-24T07:40:12;14.20;;;6.03;;
78674;SDS011;67990;59.826;30.108;2023-04-24T07:45:27;15.57;;;5.53;;
78674;SDS011;67990;59.826;30.108;2023-04-24T07:47:54;14.55;;;5.57;;
78674;SDS011;67990;59.826;30.108;2023-04-24T07:50:21;11.30;;;6.38;;
78674;SDS011;67990;59.826;30.108;2023-04-24T07:52:48;12.98;;;5.10;;
78674;SDS011;67990;59.826;30.108;2023-04-24T07:55:15;15.85;;;4.72;;
78674;SDS011;67990;59.826;30.108;2023-04-24T07:58:01;13.90;;;4.67;;
78674;SDS011;67990;59.826;30.108;2023-04-24T08:00:48;10.07;;;4.90;;
78674;SDS011;67990;59.826;30.108;2023-04-24T08:03:15;10.88;;;4.40;;
78674;SDS011;67990;59.826;30.108;2023-04-24T08:06:03;19.63;;;4.95;;
78674;SDS011;67990;59.826;30.108;2023-04-24T08:08:49;9.50;;;4.20;;
78674;SDS011;67990;59.826;30.108;2023-04-24T08:11:17;9.68;;;4.30;;
78674;SDS011;67990;59.826;30.108;2023-04-24T08:13:44;10.37;;;4.17;;
78674;SDS011;67990;59.826;30.108;2023-04-24T08:16:12;10.43;;;4.75;;
78674;SDS011;67990;59.826;30.108;2023-04-24T08:18:39;17.75;;;6.18;;
78674;SDS011;67990;59.826;30.108;2023-04-24T08:21:43;11.65;;;4.30;;
78674;SDS011;67990;59.826;30.108;2023-04-24T08:24:10;16.35;;;4.75;;
78674;SDS011;67990;59.826;30.108;2023-04-24T08:27:13;26.93;;;4.87;;
78674;SDS011;67990;59.826;30.108;2023-04-24T08:29:58;9.87;;;3.73;;
78674;SDS011;67990;59.826;30.108;2023-04-24T08:32:27;10.10;;;4.00;;
78674;SDS011;67990;59.826;30.108;2023-04-24T08:37:58;12.25;;;4.85;;
78674;SDS011;67990;59.826;30.108;2023-04-24T08:40:26;15.43;;;5.18;;
78674;SDS011;67990;59.826;30.108;2023-04-24T08:42:55;31.17;;;5.33;;
78674;SDS011;67990;59.826;30.108;2023-04-24T08:45:23;12.73;;;4.87;;
78674;SDS011;67990;59.826;30.108;2023-04-24T08:47:53;14.43;;;4.57;;
78674;SDS011;67990;59.826;30.108;2023-04-24T08:53:08;13.07;;;4.50;;
78674;SDS011;67990;59.826;30.108;2023-04-24T08:55:35;13.07;;;4.90;;
78674;SDS011;67990;59.826;30.108;2023-04-24T08:58:03;14.60;;;4.40;;
78674;SDS011;67990;59.826;30.108;2023-04-24T09:00:31;8.02;;;3.70;;
78674;SDS011;67990;59.826;30.108;2023-04-24T09:03:00;11.73;;;5.00;;
78674;SDS011;67990;59.826;30.108;2023-04-24T09:05:27;14.95;;;5.20;;
78674;SDS011;67990;59.826;30.108;2023-04-24T09:07:56;14.40;;;5.18;;
78674;SDS011;67990;59.826;30.108;2023-04-24T09:10:24;14.17;;;4.30;;
78674;SDS011;67990;59.826;30.108;2023-04-24T09:12:54;18.67;;;6.63;;
78674;SDS011;67990;59.826;30.108;2023-04-24T09:15:23;15.38;;;5.78;;
78674;SDS011;67990;59.826;30.108;2023-04-24T09:17:52;12.98;;;4.40;;
78674;SDS011;67990;59.826;30.108;2023-04-24T09:20:20;11.23;;;4.22;;
78674;SDS011;67990;59.826;30.108;2023-04-24T09:23:06;13.60;;;4.22;;
78674;SDS011;67990;59.826;30.108;2023-04-24T09:25:54;12.23;;;3.97;;
78674;SDS011;67990;59.826;30.108;2023-04-24T09:28:25;10.97;;;3.70;;
78674;SDS011;67990;59.826;30.108;2023-04-24T09:31:11;9.73;;;3.70;;
78674;SDS011;67990;59.826;30.108;2023-04-24T09:33:59;8.13;;;3.95;;
78674;SDS011;67990;59.826;30.108;2023-04-24T09:36:30;7.20;;;3.58;;
78674;SDS011;67990;59.826;30.108;2023-04-24T09:39:00;15.52;;;4.47;;
78674;SDS011;67990;59.826;30.108;2023-04-24T09:41:48;15.13;;;4.47;;
78674;SDS011;67990;59.826;30.108;2023-04-24T09:44:16;17.03;;;4.43;;
78674;SDS011;67990;59.826;30.108;2023-04-24T09:47:02;11.38;;;3.47;;
78674;SDS011;67990;59.826;30.108;2023-04-24T09:49:48;13.25;;;4.53;;
78674;SDS011;67990;59.826;30.108;2023-04-24T09:52:16;9.02;;;3.63;;
78674;SDS011;67990;59.826;30.108;2023-04-24T09:55:01;6.85;;;3.58;;
78674;SDS011;67990;59.826;30.108;2023-04-24T09:57:28;10.20;;;4.20;;
78674;SDS011;67990;59.826;30.108;2023-04-24T09:59:56;8.33;;;4.37;;
78674;SDS011;67990;59.826;30.108;2023-04-24T10:02:24;7.80;;;3.92;;
78674;SDS011;67990;59.826;30.108;2023-04-24T10:04:54;10.25;;;4.15;;
78674;SDS011;67990;59.826;30.108;2023-04-24T10:08:03;6.75;;;3.60;;
78674;SDS011;67990;59.826;30.108;2023-04-24T10:10:32;9.23;;;3.83;;
78674;SDS011;67990;59.826;30.108;2023-04-24T10:13:00;10.45;;;3.75;;
78674;SDS011;67990;59.826;30.108;2023-04-24T10:15:28;8.10;;;4.00;;
78674;SDS011;67990;59.826;30.108;2023-04-24T10:18:13;9.57;;;3.80;;
78674;SDS011;67990;59.826;30.108;2023-04-24T10:20:42;10.80;;;3.85;;
78674;SDS011;67990;59.826;30.108;2023-04-24T10:23:10;6.75;;;3.50;;
78674;SDS011;67990;59.826;30.108;2023-04-24T10:28:24;9.05;;;3.45;;
78674;SDS011;67990;59.826;30.108;2023-04-24T10:30:52;15.05;;;4.18;;
78674;SDS011;67990;59.826;30.108;2023-04-24T10:33:21;11.18;;;3.90;;
78674;SDS011;67990;59.826;30.108;2023-04-24T10:35:49;11.47;;;4.17;;
78674;SDS011;67990;59.826;30.108;2023-04-24T10:38:21;13.27;;;3.70;;
78674;SDS011;67990;59.826;30.108;2023-04-24T10:40:50;12.38;;;3.78;;
78674;SDS011;67990;59.826;30.108;2023-04-24T10:43:36;7.57;;;3.13;;
78674;SDS011;67990;59.826;30.108;2023-04-24T10:46:04;9.25;;;3.10;;
78674;SDS011;67990;59.826;30.108;2023-04-24T10:48:32;14.57;;;3.80;;
78674;SDS011;67990;59.826;30.108;2023-04-24T10:53:50;10.40;;;2.95;;
78674;SDS011;67990;59.826;30.108;2023-04-24T10:56:17;6.82;;;3.08;;
78674;SDS011;67990;59.826;30.108;2023-04-24T10:59:03;7.32;;;3.50;;
78674;SDS011;67990;59.826;30.108;2023-04-24T11:04:31;14.52;;;3.20;;
78674;SDS011;67990;59.826;30.108;2023-04-24T11:07:00;9.83;;;3.50;;
78674;SDS011;67990;59.826;30.108;2023-04-24T11:09:31;10.53;;;3.30;;
78674;SDS011;67990;59.826;30.108;2023-04-24T11:12:03;14.38;;;3.13;;
78674;SDS011;67990;59.826;30.108;2023-04-24T11:17:28;9.00;;;3.20;;
78674;SDS011;67990;59.826;30.108;2023-04-24T11:20:00;14.50;;;3.65;;
78674;SDS011;67990;59.826;30.108;2023-04-24T11:25:16;7.87;;;3.40;;
78674;SDS011;67990;59.826;30.108;2023-04-24T11:30:32;11.60;;;3.80;;
78674;SDS011;67990;59.826;30.108;2023-04-24T11:33:04;9.25;;;4.82;;
78674;SDS011;67990;59.826;30.108;2023-04-24T11:35:35;6.80;;;3.67;;
78674;SDS011;67990;59.826;30.108;2023-04-24T11:40:52;8.60;;;2.80;;
78674;SDS011;67990;59.826;30.108;2023-04-24T11:43:20;6.23;;;3.07;;
78674;SDS011;67990;59.826;30.108;2023-04-24T11:45:49;7.35;;;2.90;;
78674;SDS011;67990;59.826;30.108;2023-04-24T11:48:18;8.95;;;3.38;;
78674;SDS011;67990;59.826;30.108;2023-04-24T11:51:06;8.40;;;3.00;;
78674;SDS011;67990;59.826;30.108;2023-04-24T11:53:52;4.95;;;2.72;;
78674;SDS011;67990;59.826;30.108;2023-04-24T11:56:22;18.20;;;3.88;;
78674;SDS011;67990;59.826;30.108;2023-04-24T12:01:54;7.65;;;3.08;;
78674;SDS011;67990;59.826;30.108;2023-04-24T12:04:22;7.57;;;3.40;;
78674;SDS011;67990;59.826;30.108;2023-04-24T12:07:06;7.60;;;3.58;;
78674;SDS011;67990;59.826;30.108;2023-04-24T12:09:40;6.25;;;3.25;;
78674;SDS011;67990;59.826;30.108;2023-04-24T12:12:10;8.80;;;3.00;;
78674;SDS011;67990;59.826;30.108;2023-04-24T12:14:47;5.63;;;2.90;;
78674;SDS011;67990;59.826;30.108;2023-04-24T12:17:16;5.20;;;2.88;;
78674;SDS011;67990;59.826;30.108;2023-04-24T12:19:46;6.60;;;3.65;;
78674;SDS011;67990;59.826;30.108;2023-04-24T12:22:14;9.57;;;3.30;;
78674;SDS011;67990;59.826;30.108;2023-04-24T12:25:01;7.40;;;3.00;;
78674;SDS011;67990;59.826;30.108;2023-04-24T12:27:32;11.10;;;3.70;;
78674;SDS011;67990;59.826;30.108;2023-04-24T12:30:17;6.57;;;3.50;;
78674;SDS011;67990;59.826;30.108;2023-04-24T12:33:02;9.85;;;3.72;;
78674;SDS011;67990;59.826;30.108;2023-04-24T12:35:30;10.48;;;3.60;;
78674;SDS011;67990;59.826;30.108;2023-04-24T12:38:05;11.18;;;3.97;;
78674;SDS011;67990;59.826;30.108;2023-04-24T12:40:32;10.23;;;3.58;;
78674;SDS011;67990;59.826;30.108;2023-04-24T12:43:01;8.73;;;3.92;;
78674;SDS011;67990;59.826;30.108;2023-04-24T12:45:28;13.13;;;3.80;;
78674;SDS011;67990;59.826;30.108;2023-04-24T12:47:56;9.83;;;3.83;;
78674;SDS011;67990;59.826;30.108;2023-04-24T12:50:23;10.13;;;4.13;;
78674;SDS011;67990;59.826;30.108;2023-04-24T12:52:50;14.52;;;3.83;;
78674;SDS011;67990;59.826;30.108;2023-04-24T12:55:17;10.52;;;4.75;;
78674;SDS011;67990;59.826;30.108;2023-04-24T12:58:04;9.02;;;5.07;;
78674;SDS011;67990;59.826;30.108;2023-04-24T13:00:31;14.00;;;4.70;;
78674;SDS011;67990;59.826;30.108;2023-04-24T13:05:44;14.85;;;5.30;;
78674;SDS011;67990;59.826;30.108;2023-04-24T13:08:12;12.60;;;5.10;;
78674;SDS011;67990;59.826;30.108;2023-04-24T13:10:39;11.80;;;5.88;;
78674;SDS011;67990;59.826;30.108;2023-04-24T13:13:08;14.45;;;6.00;;
78674;SDS011;67990;59.826;30.108;2023-04-24T13:15:35;9.00;;;5.03;;
78674;SDS011;67990;59.826;30.108;2023-04-24T13:18:02;14.60;;;5.40;;
78674;SDS011;67990;59.826;30.108;2023-04-24T13:20:30;11.18;;;4.85;;
78674;SDS011;67990;59.826;30.108;2023-04-24T13:22:57;11.55;;;6.68;;
78674;SDS011;67990;59.826;30.108;2023-04-24T13:25:24;10.80;;;5.55;;
78674;SDS011;67990;59.826;30.108;2023-04-24T13:27:51;13.32;;;6.35;;
78674;SDS011;67990;59.826;30.108;2023-04-24T13:30:37;13.47;;;5.83;;
78674;SDS011;67990;59.826;30.108;2023-04-24T13:35:50;10.30;;;5.70;;
78674;SDS011;67990;59.826;30.108;2023-04-24T13:38:17;10.20;;;5.82;;
78674;SDS011;67990;59.826;30.108;2023-04-24T13:40:46;10.48;;;5.80;;
78674;SDS011;67990;59.826;30.108;2023-04-24T13:43:13;16.85;;;6.03;;
78674;SDS011;67990;59.826;30.108;2023-04-24T13:45:42;10.93;;;5.37;;
78674;SDS011;67990;59.826;30.108;2023-04-24T13:48:09;13.30;;;5.43;;
78674;SDS011;67990;59.826;30.108;2023-04-24T13:50:36;13.63;;;5.43;;
78674;SDS011;67990;59.826;30.108;2023-04-24T13:56:06;11.85;;;5.63;;
78674;SDS011;67990;59.826;30.108;2023-04-24T14:01:58;11.70;;;4.93;;
78674;SDS011;67990;59.826;30.108;2023-04-24T14:04:44;10.83;;;5.87;;
78674;SDS011;67990;59.826;30.108;2023-04-24T14:07:13;11.02;;;5.22;;
78674;SDS011;67990;59.826;30.108;2023-04-24T14:09:40;11.52;;;5.85;;
78674;SDS011;67990;59.826;30.108;2023-04-24T14:12:07;11.63;;;4.95;;
78674;SDS011;67990;59.826;30.108;2023-04-24T14:14:34;12.13;;;5.55;;
78674;SDS011;67990;59.826;30.108;2023-04-24T14:17:02;17.87;;;5.27;;
78674;SDS011;67990;59.826;30.108;2023-04-24T14:19:30;13.17;;;5.33;;
78674;SDS011;67990;59.826;30.108;2023-04-24T14:21:57;13.60;;;5.10;;
78674;SDS011;67990;59.826;30.108;2023-04-24T14:24:24;13.68;;;5.05;;
78674;SDS011;67990;59.826;30.108;2023-04-24T14:26:51;12.93;;;4.95;;
78674;SDS011;67990;59.826;30.108;2023-04-24T14:32:42;13.87;;;5.33;;
78674;SDS011;67990;59.826;30.108;2023-04-24T14:35:09;12.40;;;5.57;;
78674;SDS011;67990;59.826;30.108;2023-04-24T14:37:36;15.05;;;7.03;;
78674;SDS011;67990;59.826;30.108;2023-04-24T14:42:52;17.25;;;7.72;;
78674;SDS011;67990;59.826;30.108;2023-04-24T14:45:36;17.23;;;7.97;;
78674;SDS011;67990;59.826;30.108;2023-04-24T14:51:11;19.63;;;7.57;;
78674;SDS011;67990;59.826;30.108;2023-04-24T14:53:38;14.68;;;7.03;;
78674;SDS011;67990;59.826;30.108;2023-04-24T14:56:25;12.68;;;6.90;;
78674;SDS011;67990;59.826;30.108;2023-04-24T14:58:52;13.07;;;7.00;;
78674;SDS011;67990;59.826;30.108;2023-04-24T15:01:19;11.57;;;6.18;;
78674;SDS011;67990;59.826;30.108;2023-04-24T15:03:48;12.90;;;6.70;;
78674;SDS011;67990;59.826;30.108;2023-04-24T15:06:33;14.05;;;6.03;;
78674;SDS011;67990;59.826;30.108;2023-04-24T15:09:19;12.57;;;6.80;;
78674;SDS011;67990;59.826;30.108;2023-04-24T15:12:04;20.85;;;9.32;;
78674;SDS011;67990;59.826;30.108;2023-04-24T15:14:32;20.33;;;8.73;;
78674;SDS011;67990;59.826;30.108;2023-04-24T15:17:18;18.80;;;7.57;;
78674;SDS011;67990;59.826;30.108;2023-04-24T15:19:46;19.98;;;8.38;;
78674;SDS011;67990;59.826;30.108;2023-04-24T15:24:59;17.02;;;7.53;;
78674;SDS011;67990;59.826;30.108;2023-04-24T15:27:27;13.98;;;7.43;;
78674;SDS011;67990;59.826;30.108;2023-04-24T15:33:09;14.63;;;7.70;;
78674;SDS011;67990;59.826;30.108;2023-04-24T15:38:24;13.27;;;7.10;;
78674;SDS011;67990;59.826;30.108;2023-04-24T15:43:54;14.43;;;7.53;;
78674;SDS011;67990;59.826;30.108;2023-04-24T15:46:40;14.90;;;7.63;;
78674;SDS011;67990;59.826;30.108;2023-04-24T15:49:07;14.65;;;7.60;;
78674;SDS011;67990;59.826;30.108;2023-04-24T15:51:35;13.88;;;7.00;;
78674;SDS011;67990;59.826;30.108;2023-04-24T15:54:39;16.55;;;7.40;;
78674;SDS011;67990;59.826;30.108;2023-04-24T15:59:52;15.55;;;7.90;;
78674;SDS011;67990;59.826;30.108;2023-04-24T16:05:05;16.38;;;8.00;;
78674;SDS011;67990;59.826;30.108;2023-04-24T16:07:34;16.33;;;8.32;;
78674;SDS011;67990;59.826;30.108;2023-04-24T16:10:03;14.50;;;8.77;;
78674;SDS011;67990;59.826;30.108;2023-04-24T16:12:31;16.55;;;9.60;;
78674;SDS011;67990;59.826;30.108;2023-04-24T16:14:58;16.58;;;10.05;;
78674;SDS011;67990;59.826;30.108;2023-04-24T16:17:25;18.60;;;9.93;;
78674;SDS011;67990;59.826;30.108;2023-04-24T16:22:40;23.70;;;10.77;;
78674;SDS011;67990;59.826;30.108;2023-04-24T16:25:07;21.90;;;10.52;;
78674;SDS011;67990;59.826;30.108;2023-04-24T16:27:35;24.05;;;12.05;;
78674;SDS011;67990;59.826;30.108;2023-04-24T16:30:03;19.23;;;12.30;;
78674;SDS011;67990;59.826;30.108;2023-04-24T16:32:31;19.52;;;10.93;;
78674;SDS011;67990;59.826;30.108;2023-04-24T16:34:58;17.30;;;9.90;;
78674;SDS011;67990;59.826;30.108;2023-04-24T16:37:25;18.10;;;9.80;;
78674;SDS011;67990;59.826;30.108;2023-04-24T16:39:57;20.60;;;11.10;;
78674;SDS011;67990;59.826;30.108;2023-04-24T16:42:24;22.00;;;10.35;;
78674;SDS011;67990;59.826;30.108;2023-04-24T16:44:51;24.75;;;10.70;;
78674;SDS011;67990;59.826;30.108;2023-04-24T16:47:18;20.67;;;10.67;;
78674;SDS011;67990;59.826;30.108;2023-04-24T16:49:45;23.42;;;10.85;;
78674;SDS011;67990;59.826;30.108;2023-04-24T16:52:31;23.23;;;11.63;;
78674;SDS011;67990;59.826;30.108;2023-04-24T16:55:00;24.73;;;11.50;;
78674;SDS011;67990;59.826;30.108;2023-04-24T16:57:45;23.88;;;10.93;;
78674;SDS011;67990;59.826;30.108;2023-04-24T17:00:13;23.10;;;12.20;;
78674;SDS011;67990;59.826;30.108;2023-04-24T17:02:59;26.53;;;14.03;;
78674;SDS011;67990;59.826;30.108;2023-04-24T17:05:26;33.10;;;13.05;;
78674;SDS011;67990;59.826;30.108;2023-04-24T17:07:53;27.60;;;13.02;;
78674;SDS011;67990;59.826;30.108;2023-04-24T17:10:22;32.15;;;14.15;;